Item Display Status Humidity-temperature Sensor

Elevation Above Sea Level: 3 m

 

Deployed Sensor

  • Serial Number: 20351130
  • NDBC Property Number: 43297
  • Start Date: 10/6/2022 (10:05:00 Z)
  • End Date: Currently Active
Relative Humidity [%]     6 entries per hour
Showing data from 5/23/2024 (05:00:00 Z) to 5/22/2024 (00:00:01 Z)
Previous Next [ Day | 3-Days | 7-Days ]
First Last
Prev [ Day | 3-Days | 7-Days ] Next
First Last

Start Time:     :
End Time:     :     
Time (in GMT) :00 :50 :40 :30 :20 :10
Previous Next [ Day | 3-Days | 7-Days ]
First Last
Prev [ Day | 3-Days | 7-Days ] Next
First Last


123 => good data
MM => data is determined as missing
-- => data not received/configured
Back to Top Back to Top
5/23/2024 05:00 to 4:10 84.49 84.49 83.40 83.64 82.49 80.89
5/23/2024 04:00 to 3:10 80.48 79.11 78.74 78.41 77.79 79.24
5/23/2024 03:00 to 2:10 79.26 78.76 78.14 78.43 77.81 79.09
5/23/2024 02:00 to 1:10 80.13 80.02 79.80 80.05 79.26 79.98
5/23/2024 01:00 to 0:10 81.04 80.69 80.23 80.77 80.98 80.05
5/23/2024 00:00 to 23:10 80.60 80.83 81.47 80.93 81.08 81.53
5/22/2024 23:00 to 22:10 82.16 81.83 82.01 82.34 82.38 81.87
5/22/2024 22:00 to 21:10 81.51 81.12 82.76 83.23 82.49 81.62
5/22/2024 21:00 to 20:10 81.54 81.82 82.30 82.92 83.34 82.78
5/22/2024 20:00 to 19:10 82.47 83.19 82.43 81.89 82.18 82.09
5/22/2024 19:00 to 18:10 82.03 82.90 83.81 84.02 84.08 83.81
5/22/2024 18:00 to 17:10 83.15 83.38 83.48 83.75 83.03 83.67
5/22/2024 17:00 to 16:10 85.14 85.05 84.39 84.85 84.58 85.65
5/22/2024 16:00 to 15:10 86.05 89.52 92.44 93.41 94.17 94.20
5/22/2024 15:00 to 14:10 94.22 95.27 95.50 96.04 96.89 97.22
5/22/2024 14:00 to 13:10 97.63 97.53 97.03 97.09 96.22 95.79
5/22/2024 13:00 to 12:10 94.61 93.24 92.87 92.52 92.35 90.93
5/22/2024 12:00 to 11:10 88.69 85.88 87.53 90.08 92.04 92.62
5/22/2024 11:00 to 10:10 92.85 93.02 93.47 93.31 93.22 91.92
5/22/2024 10:00 to 9:10 92.42 92.79 93.72 94.90 94.94 94.03
5/22/2024 09:00 to 8:10 92.29 87.35 82.63 82.71 82.09 82.67
5/22/2024 08:00 to 7:10 82.42 82.18 82.05 82.26 81.74 81.49
5/22/2024 07:00 to 6:10 81.25 80.38 79.78 79.98 79.94 79.92
5/22/2024 06:00 to 5:10 79.67 78.91 80.40 80.93 82.16 81.43
5/22/2024 05:00 to 4:10 80.81 81.85 80.91 81.49 82.30 81.62
5/22/2024 04:00 to 3:10 81.31 80.21 79.53 79.63 79.36 78.82
5/22/2024 03:00 to 2:10 79.45 79.07 77.71 76.53 75.66 76.09
5/22/2024 02:00 to 1:10 77.31 77.60 76.92 77.09 77.40 77.92
5/22/2024 01:00 to 0:10 77.77 78.82 78.23 78.23 77.77 79.11

 

 

 

Air Temperature [°C]     6 entries per hour
Showing data from 5/23/2024 (05:00:00 Z) to 5/22/2024 (00:00:01 Z)
Previous Next [ Day | 3-Days | 7-Days ]
First Last
Prev [ Day | 3-Days | 7-Days ] Next
First Last

Start Time:     :
End Time:     :     
Time (in GMT) :00 :50 :40 :30 :20 :10
Previous Next [ Day | 3-Days | 7-Days ]
First Last
Prev [ Day | 3-Days | 7-Days ] Next
First Last


123 => good data
MM => data is determined as missing
-- => data not received/configured
Back to Top Back to Top
5/23/2024 05:00 to 4:10 29.88 30.01 29.92 30.04 29.95 30.14
5/23/2024 04:00 to 3:10 29.87 29.97 29.92 29.97 29.98 29.99
5/23/2024 03:00 to 2:10 30.03 30.11 29.92 29.99 30.13 30.02
5/23/2024 02:00 to 1:10 30.02 30.03 30.17 30.29 29.93 29.82
5/23/2024 01:00 to 0:10 29.88 30.01 30.02 29.93 29.94 29.83
5/23/2024 00:00 to 23:10 29.91 29.94 29.74 29.86 29.96 29.97
5/22/2024 23:00 to 22:10 30.01 29.88 29.93 29.93 29.90 30.05
5/22/2024 22:00 to 21:10 30.18 30.10 29.77 29.92 30.08 30.29
5/22/2024 21:00 to 20:10 30.13 30.22 29.83 29.89 30.00 29.97
5/22/2024 20:00 to 19:10 30.16 29.93 29.92 30.17 29.99 30.01
5/22/2024 19:00 to 18:10 30.04 29.97 29.83 29.82 29.92 30.04
5/22/2024 18:00 to 17:10 29.84 29.80 29.82 29.89 29.85 29.88
5/22/2024 17:00 to 16:10 29.73 29.82 29.75 29.63 29.66 29.64
5/22/2024 16:00 to 15:10 29.53 29.37 28.84 28.66 28.53 28.28
5/22/2024 15:00 to 14:10 27.95 27.86 27.53 27.20 27.67 27.25
5/22/2024 14:00 to 13:10 27.08 26.41 26.68 27.53 26.97 27.10
5/22/2024 13:00 to 12:10 27.31 28.30 28.27 28.12 27.70 28.40
5/22/2024 12:00 to 11:10 28.50 29.07 28.39 28.34 28.58 28.47
5/22/2024 11:00 to 10:10 28.35 28.29 27.96 27.65 27.82 28.76
5/22/2024 10:00 to 9:10 28.29 28.24 28.26 27.99 27.94 27.83
5/22/2024 09:00 to 8:10 28.45 29.33 29.84 29.95 29.78 29.88
5/22/2024 08:00 to 7:10 29.79 29.84 29.95 29.90 29.87 29.95
5/22/2024 07:00 to 6:10 30.07 30.04 29.85 30.02 30.07 30.04
5/22/2024 06:00 to 5:10 29.97 29.93 29.80 29.67 29.78 29.91
5/22/2024 05:00 to 4:10 29.72 29.61 29.78 29.63 29.82 29.82
5/22/2024 04:00 to 3:10 29.67 29.97 29.84 29.87 29.97 29.98
5/22/2024 03:00 to 2:10 30.03 29.96 29.99 30.16 30.18 30.30
5/22/2024 02:00 to 1:10 30.16 30.14 29.93 30.07 30.05 30.10
5/22/2024 01:00 to 0:10 30.00 29.98 30.03 30.01 29.91 30.12